Andover, OH

8:46 AM EDT on March 31, 2015 (GMT -0400)
Erie International | | Change Station
CLOSE
Current Station
Airport
Location: Erie,
Elevation: 738 ft
Nearby Weather Stations

Elev 738 ft 42.08 °N, 80.18 °W | Updated 3 minutes ago

Ice Pellets
Ice Pellets
33 °F
Feels Like 27 °F
N
7
Wind Variable Wind from East

Today
High -- | Low -- °F
--% Chance of Precip.
Yesterday
High -- | Low -- °F
Precip. -- in
7:07 AM 7:46 PM
Waxing Gibbous, 86% visible
Pressure 29.78 in
Visibility 0.8 miles
Clouds Few 600 ft
Mostly Cloudy 1900 ft
Overcast 2700 ft
Windchill 27 °F
Dew Point 31 °F
Humidity 92%
Rainfall 0.16 in
Snow Depth Not available.
UV 0 out of 12
Pollen .80 out of 12
Air Quality Not available.
Flu Activity Not available.
SPECI KERI 311243Z 08006KT 3/4SM R06/5000VP6000FT -SN BR FEW006 BKN019 OVC027 01/M01 A2978 RMK AO2 CIG 010 NE P0012 T00061006

More Conditions Fewer Conditions

Pressure 29.78 in
Visibility 0.8 miles
Clouds Few 600 ft
Mostly Cloudy 1900 ft
Overcast 2700 ft
Windchill 27 °F
Dew Point 31 °F
Humidity 92%
Rainfall 0.16 in
Snow Depth Not available.
UV 0 out of 12
Pollen .80 out of 12
Air Quality Not available.
Flu Activity Not available.
SPECI KERI 311243Z 08006KT 3/4SM R06/5000VP6000FT -SN BR FEW006 BKN019 OVC027 01/M01 A2978 RMK AO2 CIG 010 NE P0012 T00061006

More Conditions Fewer Conditions

10-Day Weather Forecast

Almanac

Astronomy

Mar. 31, 2015 Rise Set
Actual Time
Civil Twilight
Nautical Twilight
Astronomical Twilight
Moon
Length of Visible Light
Length of Day
Tomorrow will be .
, % of the Moon is Illuminated

Today's Extremes

State Highs State Lows

Community

WunderPhotos

Upload Photos

1,809,754 photos uploaded!

WunderBlogs® & News

Nearby

Air Quality

  Air Quality AQ Index Pollutant
Not available.

Snow Depth

Station Depth Elevation

Earthquake Activity

City Distance Mag. Time & Date
Minimum magnitude displayed is 2.5.

Coastal Water Temperatures

Place Temperature

Stations

Nearby Weather Stations

Station Location Temp. Windchill Dew Point Humidity Wind Precip. Elev Updated Type